Simmons Army Air Field
KFBG : now visible

Airfield :











YOU CAN JOIN US ON...

 
LOGIN :

Register | Disclaimer

   EN    FR    IT 

 









Legend :    VFR   Marginal VFR   IFR   Intensive IFR   Very Intensive IFR
Visi :
Ceiling :
>= 8 km
>= 3000ft
5 to 8 km
1000 to 3000 ft
1500m to 5 km
500 to 1000 ft
800 to 1500m
200 to 500 ft
< 800m
< 200 ft
Symbols :   Thunderstorms  Fog  Heavy snow  Heavy precipitations  Wind > 20 kt






- Airport Elevation : 244 ft


KFBG - Simmons Army Air Field

CURRENT METAR :
  • 250756Z AUTO 07008KT 10SM OVC007 20/20 A3009 RMK AO2 SLP190 T02000200 $

EXPIRED METARs :
  • 250726Z AUTO 08006KT 10SM BKN007 BKN011 OVC028 21/21 A3009 RMK AO2 CIG 007V028 BKN007 V SCT SLP190 $
  • 250656Z AUTO 10005KT 10SM BKN028 OVC036 21/21 A3008 RMK AO2 CIG 028V036 SLP187 T02120212 $
  • 250556Z AUTO 10003KT 10SM FEW019 SCT025 BKN036 22/22 A3008 RMK AO2 SLP187 60001 T02190219 10248 20219 58011 $
  • 250540Z AUTO 11004KT 10SM SCT015 OVC024 22/22 A3009 RMK AO2 CIG 015V024 SLP190 $
  • 250530Z AUTO 08005KT 10SM BKN015 OVC020 22/22 A3009 RMK AO2 SLP190 $
  • 250520Z AUTO 06004KT 10SM OVC013 22/22 A3009 RMK AO2 SLP190 $

TAF TAF KFBG
Valid from the 25 at 01:00 until the 26 at 07:00 UTC


250100Z 2501/2607 10009KT 9000 -SHRA BKN025 QNH3004INS
TEMPO 2502/2504 VRB20G30KT 8000 -TSRA BKN020CB OVC040
BECMG 2504/2505 12006KT 8000 -SHRA BKN015 QNH3012INS
BECMG 2507/2508 VRB06KT 8000 -SHRA OVC010 QNH3011INS
BECMG 2508/2509 VRB06KT 8000 BR OVC005 QNH3011INS
BECMG 2518/2519 VRB06KT 8000 BR OVC010 QNH3012INS TX31/2518Z TN17/2512Z
KZDC FIR / North America



MET'MAP, your aeronautical weather chart ! - Copyright ORBIFLY December 2007 - Disclaimer

ORBIFLY MET'MAP TEAM :

Programming & Development : Alexandra Zaïnal
Concept & original design : Baudouin d'Aumeries
Assistance for programming : Marc-Olivier Méhu
Technical & hardware support : Manuel Goepfert

Contact : metmap@orbifly.com




SOURCES & CREDITS :

   NOAA       Earth
Advisory